sensor_id;sensor_type;location;lat;lon;timestamp;P1;durP1;ratioP1;P2;durP2;ratioP2
48945;SDS011;34999;50.940;3.998;2023-04-03T00:01:18;33.20;;;19.97;;
48945;SDS011;34999;50.940;3.998;2023-04-03T00:03:47;36.83;;;20.90;;
48945;SDS011;34999;50.940;3.998;2023-04-03T00:06:16;34.47;;;20.73;;
48945;SDS011;34999;50.940;3.998;2023-04-03T00:08:46;31.93;;;19.73;;
48945;SDS011;34999;50.940;3.998;2023-04-03T00:11:14;35.30;;;20.00;;
48945;SDS011;34999;50.940;3.998;2023-04-03T00:13:43;35.47;;;20.57;;
48945;SDS011;34999;50.940;3.998;2023-04-03T00:16:12;36.40;;;20.23;;
48945;SDS011;34999;50.940;3.998;2023-04-03T00:18:40;30.73;;;19.83;;
48945;SDS011;34999;50.940;3.998;2023-04-03T00:21:09;33.57;;;20.40;;
48945;SDS011;34999;50.940;3.998;2023-04-03T00:23:39;30.53;;;18.97;;
48945;SDS011;34999;50.940;3.998;2023-04-03T00:26:09;32.63;;;19.60;;
48945;SDS011;34999;50.940;3.998;2023-04-03T00:28:37;37.97;;;22.20;;
48945;SDS011;34999;50.940;3.998;2023-04-03T00:31:05;31.37;;;20.07;;
48945;SDS011;34999;50.940;3.998;2023-04-03T00:33:34;34.47;;;19.67;;
48945;SDS011;34999;50.940;3.998;2023-04-03T00:36:05;30.40;;;19.03;;
48945;SDS011;34999;50.940;3.998;2023-04-03T00:38:34;31.20;;;19.57;;
48945;SDS011;34999;50.940;3.998;2023-04-03T00:41:03;34.27;;;19.90;;
48945;SDS011;34999;50.940;3.998;2023-04-03T00:43:33;33.67;;;20.47;;
48945;SDS011;34999;50.940;3.998;2023-04-03T00:46:01;37.47;;;20.60;;
48945;SDS011;34999;50.940;3.998;2023-04-03T00:48:31;33.67;;;19.57;;
48945;SDS011;34999;50.940;3.998;2023-04-03T00:51:02;38.97;;;21.33;;
48945;SDS011;34999;50.940;3.998;2023-04-03T00:53:33;29.97;;;19.80;;
48945;SDS011;34999;50.940;3.998;2023-04-03T00:56:06;33.17;;;19.63;;
48945;SDS011;34999;50.940;3.998;2023-04-03T00:58:40;31.83;;;19.53;;
48945;SDS011;34999;50.940;3.998;2023-04-03T01:01:11;37.40;;;19.37;;
48945;SDS011;34999;50.940;3.998;2023-04-03T01:03:42;31.37;;;19.83;;
48945;SDS011;34999;50.940;3.998;2023-04-03T01:06:10;31.53;;;18.60;;
48945;SDS011;34999;50.940;3.998;2023-04-03T01:08:40;30.43;;;18.20;;
48945;SDS011;34999;50.940;3.998;2023-04-03T01:11:08;31.47;;;18.33;;
48945;SDS011;34999;50.940;3.998;2023-04-03T01:13:36;32.83;;;18.33;;
48945;SDS011;34999;50.940;3.998;2023-04-03T01:16:06;28.03;;;17.77;;
48945;SDS011;34999;50.940;3.998;2023-04-03T01:18:35;29.13;;;17.50;;
48945;SDS011;34999;50.940;3.998;2023-04-03T01:23:59;25.57;;;16.80;;
48945;SDS011;34999;50.940;3.998;2023-04-03T01:26:51;29.83;;;17.07;;
48945;SDS011;34999;50.940;3.998;2023-04-03T01:29:19;27.90;;;17.53;;
48945;SDS011;34999;50.940;3.998;2023-04-03T01:31:50;27.17;;;16.63;;
48945;SDS011;34999;50.940;3.998;2023-04-03T01:34:19;28.63;;;16.20;;
48945;SDS011;34999;50.940;3.998;2023-04-03T01:36:48;24.83;;;15.77;;
48945;SDS011;34999;50.940;3.998;2023-04-03T01:39:17;31.20;;;16.87;;
48945;SDS011;34999;50.940;3.998;2023-04-03T01:41:46;25.33;;;15.90;;
48945;SDS011;34999;50.940;3.998;2023-04-03T01:44:14;33.40;;;16.57;;
48945;SDS011;34999;50.940;3.998;2023-04-03T01:46:43;22.40;;;15.30;;
48945;SDS011;34999;50.940;3.998;2023-04-03T01:49:12;24.57;;;15.03;;
48945;SDS011;34999;50.940;3.998;2023-04-03T01:51:41;31.60;;;17.07;;
48945;SDS011;34999;50.940;3.998;2023-04-03T01:54:09;32.80;;;16.87;;
48945;SDS011;34999;50.940;3.998;2023-04-03T01:56:37;29.17;;;16.37;;
48945;SDS011;34999;50.940;3.998;2023-04-03T01:59:06;22.20;;;15.03;;
48945;SDS011;34999;50.940;3.998;2023-04-03T02:01:34;29.60;;;15.40;;
48945;SDS011;34999;50.940;3.998;2023-04-03T02:04:02;27.43;;;15.53;;
48945;SDS011;34999;50.940;3.998;2023-04-03T02:06:32;25.43;;;15.17;;
48945;SDS011;34999;50.940;3.998;2023-04-03T02:09:01;24.47;;;15.43;;
48945;SDS011;34999;50.940;3.998;2023-04-03T02:11:29;30.50;;;15.83;;
48945;SDS011;34999;50.940;3.998;2023-04-03T02:13:58;27.93;;;15.37;;
48945;SDS011;34999;50.940;3.998;2023-04-03T02:16:26;27.83;;;16.03;;
48945;SDS011;34999;50.940;3.998;2023-04-03T02:18:55;24.70;;;15.40;;
48945;SDS011;34999;50.940;3.998;2023-04-03T02:21:23;28.13;;;15.47;;
48945;SDS011;34999;50.940;3.998;2023-04-03T02:23:53;26.87;;;15.43;;
48945;SDS011;34999;50.940;3.998;2023-04-03T02:26:21;28.47;;;15.57;;
48945;SDS011;34999;50.940;3.998;2023-04-03T02:28:50;23.57;;;14.73;;
48945;SDS011;34999;50.940;3.998;2023-04-03T02:31:18;24.47;;;14.47;;
48945;SDS011;34999;50.940;3.998;2023-04-03T02:33:47;30.33;;;15.27;;
48945;SDS011;34999;50.940;3.998;2023-04-03T02:36:16;24.37;;;14.90;;
48945;SDS011;34999;50.940;3.998;2023-04-03T02:38:44;26.13;;;14.23;;
48945;SDS011;34999;50.940;3.998;2023-04-03T02:41:14;22.00;;;14.23;;
48945;SDS011;34999;50.940;3.998;2023-04-03T02:43:43;22.67;;;13.40;;
48945;SDS011;34999;50.940;3.998;2023-04-03T02:46:11;22.43;;;14.30;;
48945;SDS011;34999;50.940;3.998;2023-04-03T02:48:41;25.50;;;14.23;;
48945;SDS011;34999;50.940;3.998;2023-04-03T02:51:09;26.30;;;14.10;;
48945;SDS011;34999;50.940;3.998;2023-04-03T02:53:38;22.80;;;13.40;;
48945;SDS011;34999;50.940;3.998;2023-04-03T02:56:06;21.47;;;12.77;;
48945;SDS011;34999;50.940;3.998;2023-04-03T02:58:38;20.43;;;12.37;;
48945;SDS011;34999;50.940;3.998;2023-04-03T03:01:07;18.00;;;12.73;;
48945;SDS011;34999;50.940;3.998;2023-04-03T03:03:35;23.53;;;13.37;;
48945;SDS011;34999;50.940;3.998;2023-04-03T03:06:04;20.40;;;13.77;;
48945;SDS011;34999;50.940;3.998;2023-04-03T03:08:34;28.73;;;13.17;;
48945;SDS011;34999;50.940;3.998;2023-04-03T03:11:03;19.80;;;12.33;;
48945;SDS011;34999;50.940;3.998;2023-04-03T03:13:32;20.70;;;13.17;;
48945;SDS011;34999;50.940;3.998;2023-04-03T03:16:02;22.43;;;13.33;;
48945;SDS011;34999;50.940;3.998;2023-04-03T03:18:31;26.03;;;13.43;;
48945;SDS011;34999;50.940;3.998;2023-04-03T03:21:00;21.37;;;13.53;;
48945;SDS011;34999;50.940;3.998;2023-04-03T03:23:30;19.47;;;13.13;;
48945;SDS011;34999;50.940;3.998;2023-04-03T03:26:00;26.93;;;14.13;;
48945;SDS011;34999;50.940;3.998;2023-04-03T03:28:31;22.07;;;13.43;;
48945;SDS011;34999;50.940;3.998;2023-04-03T03:30:59;23.80;;;13.80;;
48945;SDS011;34999;50.940;3.998;2023-04-03T03:33:29;24.37;;;13.50;;
48945;SDS011;34999;50.940;3.998;2023-04-03T03:35:57;22.33;;;13.63;;
48945;SDS011;34999;50.940;3.998;2023-04-03T03:38:26;28.07;;;13.97;;
48945;SDS011;34999;50.940;3.998;2023-04-03T03:40:54;24.97;;;13.83;;
48945;SDS011;34999;50.940;3.998;2023-04-03T03:43:22;22.77;;;13.77;;
48945;SDS011;34999;50.940;3.998;2023-04-03T03:45:51;27.00;;;13.43;;
48945;SDS011;34999;50.940;3.998;2023-04-03T03:48:20;21.27;;;13.30;;
48945;SDS011;34999;50.940;3.998;2023-04-03T03:50:50;25.93;;;14.10;;
48945;SDS011;34999;50.940;3.998;2023-04-03T03:53:18;24.27;;;14.47;;
48945;SDS011;34999;50.940;3.998;2023-04-03T03:55:46;22.30;;;13.40;;
48945;SDS011;34999;50.940;3.998;2023-04-03T03:58:14;23.03;;;14.43;;
48945;SDS011;34999;50.940;3.998;2023-04-03T04:00:43;27.17;;;14.37;;
48945;SDS011;34999;50.940;3.998;2023-04-03T04:03:11;19.47;;;13.87;;
48945;SDS011;34999;50.940;3.998;2023-04-03T04:05:39;20.70;;;13.63;;
48945;SDS011;34999;50.940;3.998;2023-04-03T04:08:09;25.83;;;14.93;;
48945;SDS011;34999;50.940;3.998;2023-04-03T04:10:37;25.63;;;13.63;;
48945;SDS011;34999;50.940;3.998;2023-04-03T04:13:06;25.60;;;13.77;;
48945;SDS011;34999;50.940;3.998;2023-04-03T04:15:34;24.63;;;14.17;;
48945;SDS011;34999;50.940;3.998;2023-04-03T04:18:03;23.07;;;14.40;;
48945;SDS011;34999;50.940;3.998;2023-04-03T04:20:31;28.17;;;14.43;;
48945;SDS011;34999;50.940;3.998;2023-04-03T04:22:59;23.80;;;13.77;;
48945;SDS011;34999;50.940;3.998;2023-04-03T04:25:29;23.23;;;13.93;;
48945;SDS011;34999;50.940;3.998;2023-04-03T04:27:57;21.37;;;13.30;;
48945;SDS011;34999;50.940;3.998;2023-04-03T04:30:25;22.43;;;13.40;;
48945;SDS011;34999;50.940;3.998;2023-04-03T04:32:54;24.20;;;14.10;;
48945;SDS011;34999;50.940;3.998;2023-04-03T04:35:22;23.20;;;13.53;;
48945;SDS011;34999;50.940;3.998;2023-04-03T04:37:50;24.23;;;14.27;;
48945;SDS011;34999;50.940;3.998;2023-04-03T04:40:19;21.70;;;14.17;;
48945;SDS011;34999;50.940;3.998;2023-04-03T04:42:48;23.23;;;14.13;;
48945;SDS011;34999;50.940;3.998;2023-04-03T04:45:16;25.43;;;14.93;;
48945;SDS011;34999;50.940;3.998;2023-04-03T04:47:45;26.70;;;15.10;;
48945;SDS011;34999;50.940;3.998;2023-04-03T04:50:13;21.97;;;14.30;;
48945;SDS011;34999;50.940;3.998;2023-04-03T04:52:42;21.40;;;13.90;;
48945;SDS011;34999;50.940;3.998;2023-04-03T04:55:11;25.07;;;14.83;;
48945;SDS011;34999;50.940;3.998;2023-04-03T04:57:39;28.27;;;15.27;;
48945;SDS011;34999;50.940;3.998;2023-04-03T05:00:09;21.70;;;14.47;;
48945;SDS011;34999;50.940;3.998;2023-04-03T05:02:38;28.23;;;15.30;;
48945;SDS011;34999;50.940;3.998;2023-04-03T05:05:07;25.77;;;14.07;;
48945;SDS011;34999;50.940;3.998;2023-04-03T05:07:36;23.83;;;14.50;;
48945;SDS011;34999;50.940;3.998;2023-04-03T05:10:05;24.83;;;14.87;;
48945;SDS011;34999;50.940;3.998;2023-04-03T05:12:34;27.20;;;14.70;;
48945;SDS011;34999;50.940;3.998;2023-04-03T05:15:02;30.27;;;16.43;;
48945;SDS011;34999;50.940;3.998;2023-04-03T05:17:33;27.67;;;16.53;;
48945;SDS011;34999;50.940;3.998;2023-04-03T05:20:01;33.90;;;17.43;;
48945;SDS011;34999;50.940;3.998;2023-04-03T05:22:30;33.63;;;16.87;;
48945;SDS011;34999;50.940;3.998;2023-04-03T05:24:59;29.83;;;17.50;;
48945;SDS011;34999;50.940;3.998;2023-04-03T05:27:27;26.57;;;16.73;;
48945;SDS011;34999;50.940;3.998;2023-04-03T05:29:56;29.53;;;17.10;;
48945;SDS011;34999;50.940;3.998;2023-04-03T05:32:24;36.27;;;17.13;;
48945;SDS011;34999;50.940;3.998;2023-04-03T05:34:55;30.63;;;17.00;;
48945;SDS011;34999;50.940;3.998;2023-04-03T05:37:26;30.67;;;17.27;;
48945;SDS011;34999;50.940;3.998;2023-04-03T05:39:54;30.77;;;17.43;;
48945;SDS011;34999;50.940;3.998;2023-04-03T05:42:23;32.73;;;16.87;;
48945;SDS011;34999;50.940;3.998;2023-04-03T05:44:51;27.80;;;17.10;;
48945;SDS011;34999;50.940;3.998;2023-04-03T05:47:19;31.50;;;16.97;;
48945;SDS011;34999;50.940;3.998;2023-04-03T05:49:47;26.40;;;17.07;;
48945;SDS011;34999;50.940;3.998;2023-04-03T05:52:20;33.13;;;18.47;;
48945;SDS011;34999;50.940;3.998;2023-04-03T05:54:50;28.13;;;17.60;;
48945;SDS011;34999;50.940;3.998;2023-04-03T05:57:19;37.87;;;18.50;;
48945;SDS011;34999;50.940;3.998;2023-04-03T05:59:47;33.23;;;18.23;;
48945;SDS011;34999;50.940;3.998;2023-04-03T06:02:17;32.90;;;19.43;;
48945;SDS011;34999;50.940;3.998;2023-04-03T06:04:47;30.93;;;19.00;;
48945;SDS011;34999;50.940;3.998;2023-04-03T06:07:18;34.53;;;19.63;;
48945;SDS011;34999;50.940;3.998;2023-04-03T06:09:49;42.00;;;20.10;;
48945;SDS011;34999;50.940;3.998;2023-04-03T06:12:18;37.00;;;19.57;;
48945;SDS011;34999;50.940;3.998;2023-04-03T06:14:47;33.87;;;19.93;;
48945;SDS011;34999;50.940;3.998;2023-04-03T06:17:15;35.07;;;20.10;;
48945;SDS011;34999;50.940;3.998;2023-04-03T06:19:44;36.83;;;20.73;;
48945;SDS011;34999;50.940;3.998;2023-04-03T06:22:13;33.13;;;20.80;;
48945;SDS011;34999;50.940;3.998;2023-04-03T06:24:43;34.23;;;20.90;;
48945;SDS011;34999;50.940;3.998;2023-04-03T06:27:12;31.50;;;20.70;;
48945;SDS011;34999;50.940;3.998;2023-04-03T06:29:40;35.00;;;21.40;;
48945;SDS011;34999;50.940;3.998;2023-04-03T06:32:08;36.70;;;22.30;;
48945;SDS011;34999;50.940;3.998;2023-04-03T06:34:36;35.77;;;22.57;;
48945;SDS011;34999;50.940;3.998;2023-04-03T06:37:05;33.63;;;21.10;;
48945;SDS011;34999;50.940;3.998;2023-04-03T06:39:33;29.60;;;18.07;;
48945;SDS011;34999;50.940;3.998;2023-04-03T06:42:03;24.00;;;15.53;;
48945;SDS011;34999;50.940;3.998;2023-04-03T06:44:32;15.37;;;12.43;;
48945;SDS011;34999;50.940;3.998;2023-04-03T06:47:01;21.70;;;11.40;;
48945;SDS011;34999;50.940;3.998;2023-04-03T06:49:30;16.40;;;10.77;;
48945;SDS011;34999;50.940;3.998;2023-04-03T06:51:58;14.40;;;9.37;;
48945;SDS011;34999;50.940;3.998;2023-04-03T06:54:28;13.03;;;9.03;;
48945;SDS011;34999;50.940;3.998;2023-04-03T06:56:56;10.97;;;8.57;;
48945;SDS011;34999;50.940;3.998;2023-04-03T06:59:26;10.27;;;8.83;;
48945;SDS011;34999;50.940;3.998;2023-04-03T07:01:54;13.10;;;8.73;;
48945;SDS011;34999;50.940;3.998;2023-04-03T07:04:23;9.27;;;8.30;;
48945;SDS011;34999;50.940;3.998;2023-04-03T07:06:53;12.50;;;8.20;;
48945;SDS011;34999;50.940;3.998;2023-04-03T07:09:22;11.40;;;8.33;;
48945;SDS011;34999;50.940;3.998;2023-04-03T07:11:51;11.43;;;8.13;;
48945;SDS011;34999;50.940;3.998;2023-04-03T07:14:19;10.93;;;8.10;;
48945;SDS011;34999;50.940;3.998;2023-04-03T07:16:49;13.37;;;8.57;;
48945;SDS011;34999;50.940;3.998;2023-04-03T07:19:17;9.30;;;8.30;;
48945;SDS011;34999;50.940;3.998;2023-04-03T07:21:45;13.30;;;8.13;;
48945;SDS011;34999;50.940;3.998;2023-04-03T07:24:14;9.43;;;8.50;;
48945;SDS011;34999;50.940;3.998;2023-04-03T07:26:42;9.57;;;7.33;;
48945;SDS011;34999;50.940;3.998;2023-04-03T07:29:11;11.23;;;7.87;;
48945;SDS011;34999;50.940;3.998;2023-04-03T07:31:41;12.47;;;8.70;;
48945;SDS011;34999;50.940;3.998;2023-04-03T07:34:12;11.17;;;8.17;;
48945;SDS011;34999;50.940;3.998;2023-04-03T07:36:40;12.10;;;7.40;;
48945;SDS011;34999;50.940;3.998;2023-04-03T07:39:09;9.70;;;7.30;;
48945;SDS011;34999;50.940;3.998;2023-04-03T07:41:37;8.23;;;7.23;;
48945;SDS011;34999;50.940;3.998;2023-04-03T07:44:05;9.93;;;7.40;;
48945;SDS011;34999;50.940;3.998;2023-04-03T07:46:36;7.67;;;6.80;;
48945;SDS011;34999;50.940;3.998;2023-04-03T07:49:04;9.03;;;7.23;;
48945;SDS011;34999;50.940;3.998;2023-04-03T07:51:34;9.43;;;7.23;;
48945;SDS011;34999;50.940;3.998;2023-04-03T07:54:02;11.40;;;7.03;;
48945;SDS011;34999;50.940;3.998;2023-04-03T07:56:32;7.43;;;6.67;;
48945;SDS011;34999;50.940;3.998;2023-04-03T07:59:00;8.87;;;6.37;;
48945;SDS011;34999;50.940;3.998;2023-04-03T08:01:29;8.37;;;6.90;;
48945;SDS011;34999;50.940;3.998;2023-04-03T08:03:59;7.03;;;6.37;;
48945;SDS011;34999;50.940;3.998;2023-04-03T08:06:27;11.20;;;6.27;;
48945;SDS011;34999;50.940;3.998;2023-04-03T08:09:13;8.73;;;5.87;;
48945;SDS011;34999;50.940;3.998;2023-04-03T08:11:42;12.03;;;6.03;;
48945;SDS011;34999;50.940;3.998;2023-04-03T08:14:10;11.80;;;6.10;;
48945;SDS011;34999;50.940;3.998;2023-04-03T08:16:43;6.33;;;5.20;;
48945;SDS011;34999;50.940;3.998;2023-04-03T08:19:13;5.63;;;5.03;;
48945;SDS011;34999;50.940;3.998;2023-04-03T08:21:52;5.93;;;5.20;;
48945;SDS011;34999;50.940;3.998;2023-04-03T08:24:23;7.03;;;5.70;;
48945;SDS011;34999;50.940;3.998;2023-04-03T08:26:54;6.00;;;5.00;;
48945;SDS011;34999;50.940;3.998;2023-04-03T08:29:23;5.53;;;5.03;;
48945;SDS011;34999;50.940;3.998;2023-04-03T08:31:54;5.30;;;4.80;;
48945;SDS011;34999;50.940;3.998;2023-04-03T08:34:22;5.33;;;4.67;;
48945;SDS011;34999;50.940;3.998;2023-04-03T08:36:51;6.33;;;4.70;;
48945;SDS011;34999;50.940;3.998;2023-04-03T08:39:19;8.33;;;4.27;;
48945;SDS011;34999;50.940;3.998;2023-04-03T08:41:49;4.67;;;4.13;;
48945;SDS011;34999;50.940;3.998;2023-04-03T08:44:19;5.53;;;4.30;;
48945;SDS011;34999;50.940;3.998;2023-04-03T08:46:56;5.83;;;4.47;;
48945;SDS011;34999;50.940;3.998;2023-04-03T08:49:32;5.00;;;4.47;;
48945;SDS011;34999;50.940;3.998;2023-04-03T08:52:04;9.90;;;4.40;;
48945;SDS011;34999;50.940;3.998;2023-04-03T08:54:40;5.27;;;4.03;;
48945;SDS011;34999;50.940;3.998;2023-04-03T08:57:17;5.30;;;4.50;;
48945;SDS011;34999;50.940;3.998;2023-04-03T08:59:47;5.43;;;4.40;;
48945;SDS011;34999;50.940;3.998;2023-04-03T09:02:21;4.37;;;3.90;;
48945;SDS011;34999;50.940;3.998;2023-04-03T09:04:53;4.03;;;3.43;;
48945;SDS011;34999;50.940;3.998;2023-04-03T09:07:25;4.23;;;3.83;;
48945;SDS011;34999;50.940;3.998;2023-04-03T09:10:00;8.30;;;4.40;;
48945;SDS011;34999;50.940;3.998;2023-04-03T09:12:33;4.50;;;4.10;;
48945;SDS011;34999;50.940;3.998;2023-04-03T09:15:09;5.30;;;3.90;;
48945;SDS011;34999;50.940;3.998;2023-04-03T09:17:51;5.13;;;3.90;;
48945;SDS011;34999;50.940;3.998;2023-04-03T09:20:29;6.10;;;4.47;;
48945;SDS011;34999;50.940;3.998;2023-04-03T09:23:10;5.07;;;4.13;;
48945;SDS011;34999;50.940;3.998;2023-04-03T09:25:51;4.70;;;3.77;;
48945;SDS011;34999;50.940;3.998;2023-04-03T09:28:26;5.20;;;3.37;;
48945;SDS011;34999;50.940;3.998;2023-04-03T09:31:01;6.23;;;3.53;;
48945;SDS011;34999;50.940;3.998;2023-04-03T09:33:33;4.30;;;3.30;;
48945;SDS011;34999;50.940;3.998;2023-04-03T09:36:03;4.30;;;3.47;;
48945;SDS011;34999;50.940;3.998;2023-04-03T09:38:32;10.87;;;3.00;;
48945;SDS011;34999;50.940;3.998;2023-04-03T09:41:04;3.23;;;2.90;;
48945;SDS011;34999;50.940;3.998;2023-04-03T09:43:37;4.20;;;3.07;;
48945;SDS011;34999;50.940;3.998;2023-04-03T09:46:23;3.27;;;2.73;;
48945;SDS011;34999;50.940;3.998;2023-04-03T09:48:56;3.87;;;2.70;;
48945;SDS011;34999;50.940;3.998;2023-04-03T09:51:35;6.00;;;2.70;;
48945;SDS011;34999;50.940;3.998;2023-04-03T09:54:25;2.77;;;2.53;;
48945;SDS011;34999;50.940;3.998;2023-04-03T09:57:00;4.03;;;2.90;;
48945;SDS011;34999;50.940;3.998;2023-04-03T09:59:33;3.00;;;2.73;;
48945;SDS011;34999;50.940;3.998;2023-04-03T10:02:03;4.43;;;3.00;;
48945;SDS011;34999;50.940;3.998;2023-04-03T10:04:44;2.97;;;2.70;;
48945;SDS011;34999;50.940;3.998;2023-04-03T10:07:29;4.60;;;2.83;;
48945;SDS011;34999;50.940;3.998;2023-04-03T10:10:01;3.60;;;3.03;;
48945;SDS011;34999;50.940;3.998;2023-04-03T10:12:31;4.27;;;2.80;;
48945;SDS011;34999;50.940;3.998;2023-04-03T10:15:00;3.10;;;2.80;;
48945;SDS011;34999;50.940;3.998;2023-04-03T10:17:48;3.47;;;3.00;;
48945;SDS011;34999;50.940;3.998;2023-04-03T10:20:27;3.60;;;2.57;;
48945;SDS011;34999;50.940;3.998;2023-04-03T10:23:02;4.00;;;2.60;;
48945;SDS011;34999;50.940;3.998;2023-04-03T10:25:43;2.80;;;2.50;;
48945;SDS011;34999;50.940;3.998;2023-04-03T10:28:21;5.50;;;2.50;;
48945;SDS011;34999;50.940;3.998;2023-04-03T10:30:56;4.03;;;2.40;;
48945;SDS011;34999;50.940;3.998;2023-04-03T10:33:34;4.60;;;2.50;;
48945;SDS011;34999;50.940;3.998;2023-04-03T10:36:15;2.33;;;2.13;;
48945;SDS011;34999;50.940;3.998;2023-04-03T10:38:51;2.57;;;2.40;;
48945;SDS011;34999;50.940;3.998;2023-04-03T10:41:27;2.57;;;2.37;;
48945;SDS011;34999;50.940;3.998;2023-04-03T10:44:10;7.53;;;2.90;;
48945;SDS011;34999;50.940;3.998;2023-04-03T10:46:45;4.13;;;2.47;;
48945;SDS011;34999;50.940;3.998;2023-04-03T10:49:19;5.23;;;2.70;;
48945;SDS011;34999;50.940;3.998;2023-04-03T10:51:57;2.47;;;2.30;;
48945;SDS011;34999;50.940;3.998;2023-04-03T10:54:32;2.93;;;2.37;;
48945;SDS011;34999;50.940;3.998;2023-04-03T10:57:04;2.23;;;2.10;;
48945;SDS011;34999;50.940;3.998;2023-04-03T10:59:40;4.20;;;2.43;;
48945;SDS011;34999;50.940;3.998;2023-04-03T11:02:16;2.47;;;2.27;;
48945;SDS011;34999;50.940;3.998;2023-04-03T11:04:51;2.50;;;2.30;;
48945;SDS011;34999;50.940;3.998;2023-04-03T11:07:23;2.10;;;2.00;;
48945;SDS011;34999;50.940;3.998;2023-04-03T11:09:58;3.53;;;2.00;;
48945;SDS011;34999;50.940;3.998;2023-04-03T11:12:33;2.30;;;2.10;;
48945;SDS011;34999;50.940;3.998;2023-04-03T11:15:11;3.93;;;2.37;;
48945;SDS011;34999;50.940;3.998;2023-04-03T11:17:43;3.17;;;2.50;;
48945;SDS011;34999;50.940;3.998;2023-04-03T11:20:17;3.17;;;2.00;;
48945;SDS011;34999;50.940;3.998;2023-04-03T11:22:56;3.57;;;2.10;;
48945;SDS011;34999;50.940;3.998;2023-04-03T11:25:28;2.37;;;1.93;;
48945;SDS011;34999;50.940;3.998;2023-04-03T11:27:59;2.10;;;1.90;;
48945;SDS011;34999;50.940;3.998;2023-04-03T11:30:31;2.27;;;2.00;;
48945;SDS011;34999;50.940;3.998;2023-04-03T11:35:58;2.60;;;2.10;;
48945;SDS011;34999;50.940;3.998;2023-04-03T11:38:51;2.40;;;2.00;;
48945;SDS011;34999;50.940;3.998;2023-04-03T11:41:25;3.20;;;2.10;;
48945;SDS011;34999;50.940;3.998;2023-04-03T11:43:56;2.30;;;2.10;;
48945;SDS011;34999;50.940;3.998;2023-04-03T11:55:43;2.63;;;1.93;;
48945;SDS011;34999;50.940;3.998;2023-04-03T11:58:19;3.07;;;2.00;;
48945;SDS011;34999;50.940;3.998;2023-04-03T12:00:53;4.93;;;2.43;;
48945;SDS011;34999;50.940;3.998;2023-04-03T12:06:50;2.37;;;1.90;;
48945;SDS011;34999;50.940;3.998;2023-04-03T12:12:33;2.33;;;1.77;;
48945;SDS011;34999;50.940;3.998;2023-04-03T12:15:25;3.70;;;1.90;;
48945;SDS011;34999;50.940;3.998;2023-04-03T12:21:16;2.70;;;2.07;;
48945;SDS011;34999;50.940;3.998;2023-04-03T12:24:03;2.17;;;1.93;;
48945;SDS011;34999;50.940;3.998;2023-04-03T12:26:50;2.83;;;2.20;;
48945;SDS011;34999;50.940;3.998;2023-04-03T12:29:33;3.83;;;2.20;;
48945;SDS011;34999;50.940;3.998;2023-04-03T12:32:09;2.23;;;2.00;;
48945;SDS011;34999;50.940;3.998;2023-04-03T12:34:53;3.80;;;2.10;;
48945;SDS011;34999;50.940;3.998;2023-04-03T12:37:46;2.13;;;2.00;;
48945;SDS011;34999;50.940;3.998;2023-04-03T12:40:26;1.50;;;1.50;;
48945;SDS011;34999;50.940;3.998;2023-04-03T12:43:05;2.10;;;2.00;;
48945;SDS011;34999;50.940;3.998;2023-04-03T12:45:49;5.87;;;2.20;;
48945;SDS011;34999;50.940;3.998;2023-04-03T12:48:22;2.33;;;2.10;;
48945;SDS011;34999;50.940;3.998;2023-04-03T12:50:53;3.17;;;2.37;;
48945;SDS011;34999;50.940;3.998;2023-04-03T12:53:24;2.70;;;2.00;;
48945;SDS011;34999;50.940;3.998;2023-04-03T12:55:59;3.47;;;2.07;;
48945;SDS011;34999;50.940;3.998;2023-04-03T12:58:48;6.40;;;1.90;;
48945;SDS011;34999;50.940;3.998;2023-04-03T13:01:17;1.90;;;1.80;;
48945;SDS011;34999;50.940;3.998;2023-04-03T13:03:50;2.77;;;1.70;;
48945;SDS011;34999;50.940;3.998;2023-04-03T13:06:21;4.07;;;2.00;;
48945;SDS011;34999;50.940;3.998;2023-04-03T13:08:53;2.40;;;1.90;;
48945;SDS011;34999;50.940;3.998;2023-04-03T13:11:25;1.90;;;1.80;;
48945;SDS011;34999;50.940;3.998;2023-04-03T13:13:59;1.80;;;1.70;;
48945;SDS011;34999;50.940;3.998;2023-04-03T13:16:29;2.90;;;1.93;;
48945;SDS011;34999;50.940;3.998;2023-04-03T13:18:58;1.67;;;1.67;;
48945;SDS011;34999;50.940;3.998;2023-04-03T13:21:28;2.50;;;1.70;;
48945;SDS011;34999;50.940;3.998;2023-04-03T13:23:59;1.90;;;1.80;;
48945;SDS011;34999;50.940;3.998;2023-04-03T13:26:42;2.00;;;1.90;;
48945;SDS011;34999;50.940;3.998;2023-04-03T13:29:18;2.90;;;2.00;;
48945;SDS011;34999;50.940;3.998;2023-04-03T13:31:57;2.63;;;1.70;;
48945;SDS011;34999;50.940;3.998;2023-04-03T13:34:27;2.03;;;1.63;;
48945;SDS011;34999;50.940;3.998;2023-04-03T13:37:03;1.70;;;1.60;;
48945;SDS011;34999;50.940;3.998;2023-04-03T13:39:34;1.83;;;1.70;;
48945;SDS011;34999;50.940;3.998;2023-04-03T13:42:14;3.83;;;1.80;;
48945;SDS011;34999;50.940;3.998;2023-04-03T13:44:47;1.63;;;1.53;;
48945;SDS011;34999;50.940;3.998;2023-04-03T13:47:18;1.97;;;1.87;;
48945;SDS011;34999;50.940;3.998;2023-04-03T13:49:58;1.87;;;1.77;;
48945;SDS011;34999;50.940;3.998;2023-04-03T13:52:29;1.97;;;1.60;;
48945;SDS011;34999;50.940;3.998;2023-04-03T13:55:03;2.80;;;2.07;;
48945;SDS011;34999;50.940;3.998;2023-04-03T13:57:53;1.90;;;1.80;;
48945;SDS011;34999;50.940;3.998;2023-04-03T14:00:28;4.30;;;1.97;;
48945;SDS011;34999;50.940;3.998;2023-04-03T14:03:00;2.00;;;1.77;;
48945;SDS011;34999;50.940;3.998;2023-04-03T14:05:28;1.90;;;1.80;;
48945;SDS011;34999;50.940;3.998;2023-04-03T14:07:57;1.60;;;1.50;;
48945;SDS011;34999;50.940;3.998;2023-04-03T14:10:25;1.90;;;1.80;;
48945;SDS011;34999;50.940;3.998;2023-04-03T14:12:55;4.97;;;1.90;;
48945;SDS011;34999;50.940;3.998;2023-04-03T14:15:24;2.30;;;2.00;;
48945;SDS011;34999;50.940;3.998;2023-04-03T14:17:55;1.77;;;1.67;;
48945;SDS011;34999;50.940;3.998;2023-04-03T14:20:26;2.90;;;1.80;;
48945;SDS011;34999;50.940;3.998;2023-04-03T14:22:55;4.47;;;1.90;;
48945;SDS011;34999;50.940;3.998;2023-04-03T14:25:24;1.90;;;1.80;;
48945;SDS011;34999;50.940;3.998;2023-04-03T14:27:54;2.10;;;2.00;;
48945;SDS011;34999;50.940;3.998;2023-04-03T14:30:24;2.90;;;2.03;;
48945;SDS011;34999;50.940;3.998;2023-04-03T14:32:54;2.20;;;1.83;;
48945;SDS011;34999;50.940;3.998;2023-04-03T14:35:24;2.43;;;1.90;;
48945;SDS011;34999;50.940;3.998;2023-04-03T14:37:52;2.60;;;1.90;;
48945;SDS011;34999;50.940;3.998;2023-04-03T14:40:23;2.43;;;2.10;;
48945;SDS011;34999;50.940;3.998;2023-04-03T14:42:55;2.00;;;1.90;;
48945;SDS011;34999;50.940;3.998;2023-04-03T14:45:24;2.83;;;2.00;;
48945;SDS011;34999;50.940;3.998;2023-04-03T14:47:53;2.17;;;1.80;;
48945;SDS011;34999;50.940;3.998;2023-04-03T14:50:24;1.93;;;1.83;;
48945;SDS011;34999;50.940;3.998;2023-04-03T14:52:55;2.10;;;2.00;;
48945;SDS011;34999;50.940;3.998;2023-04-03T14:55:25;2.23;;;2.10;;
48945;SDS011;34999;50.940;3.998;2023-04-03T14:57:54;2.27;;;2.10;;
48945;SDS011;34999;50.940;3.998;2023-04-03T15:00:23;3.70;;;1.90;;
48945;SDS011;34999;50.940;3.998;2023-04-03T15:02:52;2.30;;;2.10;;
48945;SDS011;34999;50.940;3.998;2023-04-03T15:05:21;1.80;;;1.70;;
48945;SDS011;34999;50.940;3.998;2023-04-03T15:07:49;3.73;;;2.13;;
48945;SDS011;34999;50.940;3.998;2023-04-03T15:10:21;2.20;;;2.10;;
48945;SDS011;34999;50.940;3.998;2023-04-03T15:12:51;2.27;;;2.17;;
48945;SDS011;34999;50.940;3.998;2023-04-03T15:15:22;4.73;;;2.13;;
48945;SDS011;34999;50.940;3.998;2023-04-03T15:17:52;2.43;;;2.20;;
48945;SDS011;34999;50.940;3.998;2023-04-03T15:20:23;3.83;;;1.90;;
48945;SDS011;34999;50.940;3.998;2023-04-03T15:22:54;5.27;;;2.23;;
48945;SDS011;34999;50.940;3.998;2023-04-03T15:25:23;3.23;;;2.03;;